Time;durP1;ratioP1;P1;durP2;ratioP2;P2;SDS_P1;SDS_P2;PMS_P1;PMS_P2;Temp;Humidity;BMP_temperature;BMP_pressure;BME280_temperature;BME280_humidity;BME280_pressure;Samples;Min_cycle;Max_cycle;Signal;HPM_P1;HPM_P2
2021/12/17 00:02:35;;;;;;;8.48;5.30;;;;;;;5.97;56.82;100386.13;5090001;28;20031;-50
2021/12/17 00:07:24;;;;;;;8.50;5.40;;;;;;;5.32;58.69;100386.53;5089340;28;20185;-50
2021/12/17 00:09:50;;;;;;;9.77;5.43;;;;;;;5.34;58.69;100396.94;5089943;28;20020;-50
2021/12/17 00:12:18;;;;;;;9.93;5.70;;;;;;;5.50;57.98;100389.09;5089755;28;20383;-48
2021/12/17 00:14:46;;;;;;;8.50;5.18;;;;;;;5.39;57.67;100377.00;5089714;28;20028;-47
2021/12/17 00:17:15;;;;;;;8.35;5.30;;;;;;;5.29;58.25;100373.63;5088426;28;20089;-49
2021/12/17 00:49:30;;;;;;;9.90;5.85;;;;;;;5.43;58.46;100380.19;5092344;28;20491;-48
2021/12/17 00:51:59;;;;;;;9.73;5.70;;;;;;;5.36;58.50;100384.41;5093415;28;20020;-48
2021/12/17 00:54:37;;;;;;;9.80;5.65;;;;;;;5.36;58.24;100382.59;5093319;28;20044;-49
2021/12/17 00:57:06;;;;;;;11.05;6.32;;;;;;;5.56;57.96;100375.31;5094086;28;20111;-50
2021/12/17 00:59:31;;;;;;;9.77;5.80;;;;;;;5.68;56.97;100378.50;5093651;28;20241;-49
2021/12/17 01:01:58;;;;;;;10.23;5.90;;;;;;;5.37;58.32;100371.06;5093345;28;20392;-49
2021/12/17 01:04:24;;;;;;;9.18;5.47;;;;;;;5.25;58.23;100367.00;5093490;28;20047;-48
2021/12/17 01:06:49;;;;;;;10.32;5.35;;;;;;;5.09;59.30;100373.81;5093294;28;20407;-47
2021/12/17 01:09:16;;;;;;;10.82;5.93;;;;;;;5.14;59.03;100364.59;5093581;28;20404;-50
2021/12/17 01:11:42;;;;;;;10.43;5.88;;;;;;;5.46;58.14;100364.84;5093098;28;20023;-48
2021/12/17 01:14:07;;;;;;;9.10;5.90;;;;;;;5.58;57.62;100362.78;5093345;28;20067;-51
2021/12/17 01:16:33;;;;;;;10.30;5.65;;;;;;;5.48;57.23;100354.97;5093442;28;20146;-48
2021/12/17 01:35:28;;;;;;;9.57;4.88;;;;;;;5.45;57.20;100342.06;5092541;28;20038;-49
2021/12/17 01:43:13;;;;;;;9.10;5.55;;;;;;;5.78;56.42;100344.06;5092838;28;20085;-49
2021/12/17 01:45:40;;;;;;;9.80;5.68;;;;;;;5.77;56.63;100351.16;5092165;28;20024;-49
2021/12/17 01:48:10;;;;;;;9.63;5.45;;;;;;;5.61;56.87;100348.44;5092583;28;20137;-51
2021/12/17 02:01:14;;;;;;;8.68;5.15;;;;;;;4.96;59.38;100333.78;5091399;28;20031;-51
2021/12/17 02:03:40;;;;;;;9.23;5.22;;;;;;;5.03;59.38;100344.56;5092319;28;20107;-51
2021/12/17 02:06:06;;;;;;;8.50;5.32;;;;;;;5.16;59.00;100341.53;5073920;28;20095;-49
2021/12/17 02:08:32;;;;;;;9.00;5.20;;;;;;;5.15;59.39;100353.06;5090933;28;20047;-49
2021/12/17 02:30:17;;;;;;;10.07;5.78;;;;;;;5.37;59.34;100346.44;5091771;28;20039;-48
2021/12/17 02:32:45;;;;;;;9.38;5.70;;;;;;;5.27;59.01;100333.34;5091598;28;20055;-48
2021/12/17 02:37:36;;;;;;;9.75;5.50;;;;;;;5.09;59.45;100312.31;5091940;28;20442;-49
2021/12/17 02:45:32;;;;;;;10.27;5.95;;;;;;;5.44;58.62;100321.09;5091756;28;20069;-50
2021/12/17 02:47:59;;;;;;;10.23;5.57;;;;;;;5.04;59.23;100312.75;5091404;28;20491;-49
2021/12/17 02:50:25;;;;;;;9.63;5.50;;;;;;;5.33;58.83;100318.72;5091748;28;20076;-48
2021/12/17 02:52:50;;;;;;;9.02;5.53;;;;;;;5.29;58.52;100324.31;5091585;28;20099;-48
2021/12/17 02:55:16;;;;;;;9.10;5.57;;;;;;;5.33;58.80;100324.84;5091312;28;20059;-48
2021/12/17 02:57:41;;;;;;;8.80;5.50;;;;;;;5.05;59.52;100329.44;5089802;28;20028;-38
2021/12/17 03:00:08;;;;;;;9.30;5.40;;;;;;;5.36;59.04;100324.53;5091476;28;20020;-37
2021/12/17 03:02:36;;;;;;;8.25;4.90;;;;;;;5.32;58.63;100333.72;5091144;28;20500;-37
2021/12/17 03:05:02;;;;;;;10.07;5.80;;;;;;;5.22;58.66;100333.00;5091215;28;20040;-38
2021/12/17 03:07:28;;;;;;;8.23;4.97;;;;;;;5.06;59.84;100333.69;5091176;28;20065;-38
2021/12/17 03:10:04;;;;;;;10.07;5.68;;;;;;;5.06;59.85;100344.25;5091213;28;20455;-38
2021/12/17 03:12:57;;;;;;;9.20;5.00;;;;;;;4.92;60.07;100324.53;5090786;28;20035;-38
2021/12/17 03:15:34;;;;;;;9.52;5.20;;;;;;;4.94;60.04;100321.75;5091182;28;20042;-38
2021/12/17 03:26:21;;;;;;;10.20;5.60;;;;;;;5.35;59.08;100329.94;5088660;28;20147;-38
2021/12/17 03:28:52;;;;;;;10.63;5.70;;;;;;;5.04;60.15;100318.03;5090593;28;20200;-38
2021/12/17 03:31:18;;;;;;;9.32;5.70;;;;;;;5.25;59.75;100330.06;5091041;28;20023;-38
2021/12/17 03:33:46;;;;;;;7.90;4.43;;;;;;;4.94;60.79;100333.13;5090759;28;20084;-38
2021/12/17 03:36:14;;;;;;;8.52;5.50;;;;;;;5.09;60.61;100328.94;5091311;28;20028;-38
2021/12/17 03:38:40;;;;;;;8.40;5.40;;;;;;;5.54;59.61;100337.69;5090720;28;20024;-38
2021/12/17 03:41:33;;;;;;;9.48;5.40;;;;;;;5.51;59.01;100324.78;5090792;28;20048;-38
2021/12/17 03:43:54;;;;;;;9.77;5.35;;;;;;;4.89;60.86;100328.31;5090277;28;20043;-38
2021/12/17 03:46:20;;;;;;;9.18;5.35;;;;;;;5.28;59.93;100321.84;5090434;28;20024;-38
2021/12/17 03:48:46;;;;;;;9.43;5.60;;;;;;;4.96;61.29;100317.97;5090494;28;20024;-38
2021/12/17 03:51:16;;;;;;;9.27;5.47;;;;;;;5.15;60.53;100316.13;5090359;28;20028;-38
2021/12/17 03:53:47;;;;;;;8.88;5.70;;;;;;;5.31;60.10;100318.03;5090424;28;20028;-38
2021/12/17 03:56:12;;;;;;;8.88;5.25;;;;;;;5.25;60.30;100316.84;5090416;28;20038;-43
2021/12/17 03:58:38;;;;;;;8.50;5.13;;;;;;;5.08;60.38;100314.13;5090309;28;20443;-42
2021/12/17 04:01:03;;;;;;;8.90;4.80;;;;;;;5.12;60.55;100311.16;5090046;28;20138;-39
2021/12/17 04:03:29;;;;;;;8.95;5.40;;;;;;;5.26;60.54;100314.06;5089449;28;20020;-39
2021/12/17 04:05:54;;;;;;;8.02;5.32;;;;;;;5.25;60.59;100314.22;5089841;28;20121;-39
2021/12/17 04:08:20;;;;;;;9.00;5.18;;;;;;;5.36;60.19;100311.31;5090334;28;20028;-38
2021/12/17 04:10:49;;;;;;;10.40;5.50;;;;;;;5.12;60.89;100311.97;5088749;28;20020;-51
2021/12/17 04:16:02;;;;;;;9.85;6.18;;;;;;;5.47;59.98;100311.06;5090279;28;20035;-38
2021/12/17 04:18:28;;;;;;;11.15;5.63;;;;;;;5.83;58.63;100307.44;5090057;28;20100;-39
2021/12/17 04:20:54;;;;;;;9.88;5.53;;;;;;;5.65;59.25;100307.50;5090283;28;20425;-39
2021/12/17 04:23:20;;;;;;;8.75;5.10;;;;;;;5.79;58.64;100295.56;5091518;28;20020;-40
2021/12/17 04:25:47;;;;;;;9.13;5.45;;;;;;;5.55;59.40;100298.91;5093831;28;20058;-40
2021/12/17 04:28:13;;;;;;;11.63;5.78;;;;;;;5.60;59.55;100299.25;5094224;28;20036;-40
2021/12/17 04:30:39;;;;;;;10.98;5.78;;;;;;;5.61;59.30;100292.97;5093864;28;20097;-39
2021/12/17 04:33:04;;;;;;;8.75;5.25;;;;;;;5.87;58.35;100290.28;5092622;28;20020;-39
2021/12/17 04:35:30;;;;;;;9.23;5.47;;;;;;;5.58;59.07;100301.19;5094650;28;20137;-39
2021/12/17 04:37:56;;;;;;;9.27;5.50;;;;;;;5.60;59.38;100307.19;5093931;28;20476;-39
2021/12/17 04:40:23;;;;;;;9.77;6.28;;;;;;;5.49;59.48;100310.91;5093735;28;20464;-39
2021/12/17 04:43:09;;;;;;;9.75;5.28;;;;;;;5.50;59.48;100304.63;5093735;28;20111;-40
2021/12/17 04:45:39;;;;;;;10.00;5.20;;;;;;;5.87;58.95;100299.03;5093841;28;20067;-37
2021/12/17 04:59:00;;;;;;;10.10;5.45;;;;;;;5.75;59.06;100307.41;5093466;28;20108;-38
2021/12/17 05:01:26;;;;;;;10.30;5.50;;;;;;;5.84;58.82;100312.56;5093610;28;20028;-38
2021/12/17 05:03:51;;;;;;;9.00;5.05;;;;;;;5.97;58.15;100309.50;5094090;28;20104;-38
2021/12/17 05:06:18;;;;;;;9.68;5.28;;;;;;;6.02;58.26;100307.22;5093258;28;20460;-38
2021/12/17 05:08:44;;;;;;;8.35;5.03;;;;;;;5.94;58.23;100308.97;5093290;28;20384;-37
2021/12/17 05:19:26;;;;;;;7.82;4.90;;;;;;;5.80;59.18;100305.94;5093204;28;20039;-39
2021/12/17 05:21:52;;;;;;;9.23;5.35;;;;;;;5.70;59.23;100299.13;5092990;28;20032;-38
2021/12/17 05:24:17;;;;;;;10.13;5.85;;;;;;;5.67;59.60;100297.63;5091707;28;20024;-38
2021/12/17 05:26:43;;;;;;;28.75;15.32;;;;;;;5.61;59.34;100292.97;5092713;28;20427;-38
2021/12/17 05:29:08;;;;;;;17.05;8.77;;;;;;;5.57;59.41;100281.09;5092866;28;20092;-38
2021/12/17 05:31:34;;;;;;;13.40;7.95;;;;;;;5.54;59.55;100276.94;5092636;28;20024;-39
2021/12/17 05:33:59;;;;;;;39.85;16.70;;;;;;;5.86;58.87;100280.69;5092443;28;20051;-38
2021/12/17 05:36:25;;;;;;;9.73;5.22;;;;;;;6.24;57.74;100274.09;5092301;28;20028;-38
2021/12/17 05:38:50;;;;;;;8.80;5.07;;;;;;;6.17;57.74;100264.31;5092104;28;20032;-38
2021/12/17 05:41:16;;;;;;;7.88;4.75;;;;;;;5.85;58.56;100257.94;5092384;28;20162;-39
2021/12/17 05:43:41;;;;;;;8.13;4.80;;;;;;;5.78;58.60;100256.91;5088420;28;20467;-38
2021/12/17 05:48:33;;;;;;;9.25;5.20;;;;;;;5.87;58.02;100261.22;5091705;28;20035;-38
2021/12/17 05:51:00;;;;;;;9.18;5.07;;;;;;;6.14;57.17;100260.19;5091768;28;20068;-38
2021/12/17 05:53:25;;;;;;;9.30;5.43;;;;;;;5.82;57.74;100248.50;5091221;28;20023;-38
2021/12/17 05:55:51;;;;;;;7.82;4.82;;;;;;;5.73;58.50;100253.91;5090978;28;20058;-39
2021/12/17 05:58:16;;;;;;;7.75;5.13;;;;;;;5.42;58.96;100255.25;5090632;28;20024;-39
2021/12/17 06:00:42;;;;;;;8.55;5.28;;;;;;;5.62;58.33;100255.03;5089702;28;20027;-39
2021/12/17 06:03:08;;;;;;;8.25;5.03;;;;;;;5.98;57.40;100247.75;5089843;28;20036;-39
2021/12/17 06:05:33;;;;;;;8.95;4.88;;;;;;;5.63;58.02;100259.31;5090134;28;20052;-38
2021/12/17 06:07:59;;;;;;;10.05;5.10;;;;;;;5.49;58.52;100247.53;5090916;28;20337;-39
2021/12/17 06:10:25;;;;;;;7.97;4.80;;;;;;;5.68;57.99;100260.50;5090712;28;20395;-38
2021/12/17 06:12:50;;;;;;;8.70;4.97;;;;;;;5.70;57.86;100265.63;5090871;28;20032;-39
2021/12/17 06:15:17;;;;;;;8.98;5.28;;;;;;;6.04;56.78;100268.25;5090791;28;20063;-38
2021/12/17 06:17:43;;;;;;;7.10;4.60;;;;;;;5.91;56.73;100256.47;5090905;28;20039;-38
2021/12/17 06:20:10;;;;;;;7.22;4.53;;;;;;;5.67;57.22;100250.94;5091533;28;20028;-39
2021/12/17 06:22:35;;;;;;;8.10;4.82;;;;;;;5.77;57.67;100250.81;5091020;28;20058;-40
2021/12/17 06:25:01;;;;;;;6.35;4.35;;;;;;;5.70;57.72;100255.06;5090902;28;20035;-38
2021/12/17 06:27:26;;;;;;;8.40;4.25;;;;;;;5.88;56.93;100261.09;5091017;28;20043;-38
2021/12/17 06:29:52;;;;;;;8.00;4.53;;;;;;;6.21;56.77;100268.31;5090292;28;20028;-38
2021/12/17 06:32:18;;;;;;;7.15;4.57;;;;;;;5.85;57.12;100263.22;5090556;28;20024;-38
2021/12/17 06:34:43;;;;;;;8.43;4.90;;;;;;;5.98;57.17;100252.22;5090107;28;20043;-38
2021/12/17 06:37:09;;;;;;;11.23;5.28;;;;;;;6.07;56.74;100244.16;5090554;28;20098;-38
2021/12/17 06:39:35;;;;;;;7.78;4.30;;;;;;;5.92;56.74;100243.09;5090497;28;20441;-38
2021/12/17 06:42:00;;;;;;;38.97;18.02;;;;;;;5.98;57.13;100254.88;5090467;28;20441;-38
2021/12/17 06:44:26;;;;;;;7.53;3.75;;;;;;;5.73;58.41;100252.13;5090710;28;20483;-38
2021/12/17 07:10:53;;;;;;;9.43;4.75;;;;;;;5.99;57.84;100277.66;5090116;28;20016;-38
2021/12/17 07:34:09;;;;;;;8.68;5.05;;;;;;;6.11;59.88;100273.72;5089672;28;20068;-37
2021/12/17 07:36:44;;;;;;;11.25;5.10;;;;;;;6.43;59.47;100288.78;5088218;28;20059;-39
2021/12/17 07:39:10;;;;;;;7.95;4.85;;;;;;;6.44;59.43;100282.53;5087567;28;20028;-39
2021/12/17 07:41:35;;;;;;;8.27;5.18;;;;;;;6.49;59.32;100282.03;5088336;28;20082;-39
2021/12/17 07:44:02;;;;;;;7.60;4.78;;;;;;;6.52;59.52;100288.84;5089959;28;20058;-39
2021/12/17 07:46:27;;;;;;;8.30;4.78;;;;;;;6.39;59.65;100281.38;5084974;28;20115;-39
2021/12/17 07:48:54;;;;;;;9.50;5.25;;;;;;;6.58;59.14;100274.94;5087439;28;20428;-38
2021/12/17 07:51:21;;;;;;;14.80;4.97;;;;;;;6.64;59.43;100272.47;5087791;28;20156;-38
2021/12/17 07:53:46;;;;;;;9.13;5.03;;;;;;;7.05;57.75;100269.81;5089017;28;20020;-38
2021/12/17 07:56:14;;;;;;;14.68;5.30;;;;;;;7.12;57.65;100267.31;5088866;28;20034;-38
2021/12/17 07:58:39;;;;;;;9.77;5.65;;;;;;;6.93;58.32;100259.72;5088959;28;20097;-38
2021/12/17 08:01:05;;;;;;;6.53;4.50;;;;;;;6.90;57.70;100263.53;5087852;28;20487;-39
2021/12/17 08:03:30;;;;;;;7.82;4.32;;;;;;;6.56;58.75;100246.00;5085749;28;20036;-39
2021/12/17 08:05:56;;;;;;;11.77;6.38;;;;;;;7.69;66.38;100261.03;5086973;28;20048;-39
2021/12/17 08:08:22;;;;;;;7.72;4.60;;;;;;;7.68;55.96;100261.22;5084620;28;20020;-38
2021/12/17 08:10:47;;;;;;;6.88;4.28;;;;;;;7.91;55.12;100248.84;5089019;28;20065;-38
2021/12/17 08:13:20;;;;;;;9.45;4.60;;;;;;;7.56;55.69;100245.69;5088997;28;20446;-38
2021/12/17 08:16:07;;;;;;;7.88;4.75;;;;;;;7.67;55.41;100247.13;5088961;28;20375;-38
2021/12/17 08:23:21;;;;;;;8.90;4.68;;;;;;;7.60;55.20;100240.88;5088905;28;20020;-39
2021/12/17 08:26:57;;;;;;;8.55;4.70;;;;;;;7.93;54.48;100238.06;5088617;28;20086;-38
2021/12/17 08:31:53;;;;;;;6.35;3.67;;;;;;;7.94;55.07;100218.50;5088751;28;20123;-49
2021/12/17 08:34:19;;;;;;;6.80;3.83;;;;;;;7.93;54.74;100222.16;5088514;28;20110;-49
2021/12/17 08:36:44;;;;;;;5.13;3.33;;;;;;;8.15;54.54;100225.84;5088772;28;20032;-49
2021/12/17 08:39:10;;;;;;;7.60;3.53;;;;;;;8.08;54.84;100238.97;5088292;28;20043;-50
2021/12/17 08:41:37;;;;;;;7.60;3.83;;;;;;;8.50;54.19;100243.00;5088624;28;20028;-49
2021/12/17 08:44:03;;;;;;;6.30;3.80;;;;;;;8.53;53.95;100231.22;5089003;28;20115;-49
2021/12/17 08:46:29;;;;;;;8.20;3.60;;;;;;;8.51;53.44;100222.63;5087626;28;20024;-50
2021/12/17 08:48:54;;;;;;;5.15;3.58;;;;;;;8.31;54.09;100222.25;5088425;28;20028;-51
2021/12/17 08:51:20;;;;;;;6.32;3.90;;;;;;;9.26;55.53;100223.59;5088936;28;20020;-51
2021/12/17 08:53:45;;;;;;;7.55;3.72;;;;;;;9.12;52.27;100217.22;5088887;28;20028;-49
2021/12/17 08:56:14;;;;;;;5.13;3.50;;;;;;;8.76;52.76;100213.44;5088690;28;20055;-49
2021/12/17 08:58:40;;;;;;;8.27;4.35;;;;;;;8.53;55.95;100216.16;5087178;28;20402;-50
2021/12/17 09:01:05;;;;;;;5.60;3.75;;;;;;;9.41;54.83;100215.63;5088860;28;20036;-52
2021/12/17 09:03:32;;;;;;;6.57;3.70;;;;;;;9.17;52.55;100209.56;5089085;28;20425;-50
2021/12/17 09:05:57;;;;;;;7.35;3.60;;;;;;;8.85;53.21;100203.56;5088747;28;20048;-50
2021/12/17 09:08:24;;;;;;;5.70;3.60;;;;;;;8.80;53.51;100198.81;5121585;27;20712;-51
2021/12/17 09:10:52;;;;;;;6.45;3.40;;;;;;;8.73;54.34;100189.09;5091976;28;20024;-51
2021/12/17 09:13:17;;;;;;;5.57;3.30;;;;;;;8.32;55.49;100184.94;5092354;28;20035;-38
2021/12/17 09:15:43;;;;;;;5.32;3.47;;;;;;;8.40;56.02;100192.03;5092375;28;20020;-39
2021/12/17 09:18:08;;;;;;;5.53;3.08;;;;;;;8.05;56.34;100183.63;5092329;28;20031;-39
2021/12/17 09:20:34;;;;;;;5.47;3.17;;;;;;;8.42;55.05;100158.22;5092085;28;20475;-38
2021/12/17 09:22:59;;;;;;;6.07;3.60;;;;;;;8.19;55.55;100156.38;5091708;28;20016;-39
2021/12/17 09:25:25;;;;;;;6.15;3.63;;;;;;;9.46;66.83;100162.72;5091521;28;20055;-39
2021/12/17 09:27:50;;;;;;;7.35;3.40;;;;;;;8.71;54.79;100159.28;5088440;28;20126;-39
2021/12/17 09:30:17;;;;;;;5.90;3.38;;;;;;;9.41;61.26;100144.72;5085108;28;20416;-40
2021/12/17 09:32:42;;;;;;;6.75;3.28;;;;;;;9.91;52.43;100137.69;5071902;28;20441;-38
2021/12/17 09:35:08;;;;;;;5.97;3.60;;;;;;;9.64;52.17;100141.09;5071991;28;20082;-39
2021/12/17 09:37:33;;;;;;;7.53;3.20;;;;;;;8.86;54.32;100127.44;5071418;28;20085;-39
2021/12/17 09:39:59;;;;;;;5.65;3.78;;;;;;;8.71;55.49;100128.25;5071621;28;20021;-39
2021/12/17 09:42:25;;;;;;;8.35;3.40;;;;;;;9.02;54.53;100124.59;5070740;28;20027;-39
2021/12/17 09:44:50;;;;;;;5.80;3.58;;;;;;;8.88;54.77;100114.81;5070295;28;20024;-39
2021/12/17 09:47:16;;;;;;;10.07;4.28;;;;;;;9.06;54.58;100117.09;5087089;28;20016;-39
2021/12/17 09:49:42;;;;;;;6.15;3.50;;;;;;;8.74;55.22;100119.13;5091479;28;20059;-39
2021/12/17 09:52:07;;;;;;;8.30;3.75;;;;;;;8.48;56.49;100114.25;5091178;28;20051;-39
2021/12/17 09:54:33;;;;;;;8.57;3.70;;;;;;;8.44;56.80;100108.47;5091610;28;20454;-39
2021/12/17 09:56:58;;;;;;;6.50;2.92;;;;;;;8.74;56.49;100106.66;5091449;28;20020;-39
2021/12/17 09:59:24;;;;;;;8.98;3.50;;;;;;;9.02;55.86;100102.53;5091263;28;20023;-39
2021/12/17 10:01:50;;;;;;;8.80;4.30;;;;;;;8.74;56.63;100106.66;5091304;28;20063;-38
2021/12/17 10:04:26;;;;;;;27.00;9.73;;;;;;;8.40;58.14;100105.31;5091489;28;20031;-38
2021/12/17 10:06:52;;;;;;;25.05;8.60;;;;;;;8.71;57.94;100100.91;5090994;28;20052;-39
2021/12/17 10:09:18;;;;;;;6.20;3.60;;;;;;;8.42;57.95;100089.25;5091033;28;20031;-38
2021/12/17 10:12:06;;;;;;;6.55;3.40;;;;;;;8.41;58.33;100087.56;5089555;28;20201;-38
2021/12/17 10:14:32;;;;;;;7.18;3.55;;;;;;;8.52;58.27;100073.06;5090882;28;20026;-38
2021/12/17 10:17:13;;;;;;;5.05;3.45;;;;;;;8.05;59.69;100064.34;5090929;28;20384;-49
2021/12/17 10:19:49;;;;;;;7.38;3.40;;;;;;;8.10;59.61;100069.97;5091121;28;20047;-38
2021/12/17 10:22:16;;;;;;;5.57;3.83;;;;;;;8.42;59.62;100068.03;5090817;28;20083;-38
2021/12/17 10:24:44;;;;;;;6.70;3.60;;;;;;;8.35;59.26;100072.38;5089019;28;20378;-38
2021/12/17 10:27:22;;;;;;;26.58;14.57;;;;;;;8.30;59.69;100064.13;5090905;28;20454;-38
2021/12/17 10:29:47;;;;;;;6.30;4.05;;;;;;;8.34;60.04;100054.81;5090565;28;20032;-38
2021/12/17 10:32:18;;;;;;;5.70;3.20;;;;;;;8.50;59.04;100030.00;5090506;28;20026;-38
2021/12/17 10:35:06;;;;;;;5.88;3.75;;;;;;;8.37;60.43;100047.31;5091479;28;20033;-39
2021/12/17 10:37:56;;;;;;;7.28;3.83;;;;;;;8.47;60.47;100040.97;5090347;28;20064;-39
2021/12/17 10:40:25;;;;;;;6.90;4.13;;;;;;;8.47;60.25;100030.34;5090742;28;20048;-39
2021/12/17 10:43:03;;;;;;;6.32;4.00;;;;;;;8.15;61.57;100034.97;5089524;28;20028;-39
2021/12/17 10:45:31;;;;;;;5.85;3.78;;;;;;;8.17;61.09;100032.97;5090558;28;20028;-38
2021/12/17 10:48:02;;;;;;;6.03;3.90;;;;;;;8.67;58.59;100031.44;5089415;28;20035;-38
2021/12/17 10:50:28;;;;;;;5.20;3.50;;;;;;;8.70;57.74;100023.13;5091136;28;20020;-38
2021/12/17 10:52:55;;;;;;;6.18;3.92;;;;;;;8.70;57.43;100015.19;5090896;28;20451;-38
2021/12/17 10:55:22;;;;;;;6.38;3.60;;;;;;;8.56;57.56;100008.03;5090897;28;20051;-38
2021/12/17 10:57:49;;;;;;;5.93;3.88;;;;;;;8.84;56.78;100010.84;5089200;28;20028;-38
2021/12/17 11:00:16;;;;;;;6.60;3.50;;;;;;;9.01;55.78;100014.13;5090472;28;20019;-39
2021/12/17 11:02:52;;;;;;;5.30;3.60;;;;;;;8.95;55.97;100001.59;5090166;28;20028;-38
2021/12/17 11:05:18;;;;;;;5.75;3.53;;;;;;;8.75;55.75;100002.16;5090002;28;20121;-38
2021/12/17 11:07:47;;;;;;;17.10;9.02;;;;;;;8.95;55.62;100004.25;5090331;28;20478;-37
2021/12/17 11:10:13;;;;;;;19.33;9.80;;;;;;;8.88;55.56;99998.84;5089989;28;20422;-38
2021/12/17 11:12:42;;;;;;;5.82;3.80;;;;;;;8.86;55.88;99992.91;5090680;28;20032;-39
2021/12/17 11:15:19;;;;;;;6.80;3.72;;;;;;;8.83;55.91;99993.28;5090267;28;20129;-38
2021/12/17 11:18:04;;;;;;;5.25;3.47;;;;;;;8.71;56.53;99987.63;5089771;28;20065;-38
2021/12/17 11:20:35;;;;;;;7.00;3.67;;;;;;;8.65;56.50;99984.91;5088846;28;20043;-39
2021/12/17 11:23:05;;;;;;;5.35;3.60;;;;;;;8.54;56.81;99987.00;5089168;28;20137;-40
2021/12/17 11:25:30;;;;;;;7.15;3.97;;;;;;;8.76;56.32;99982.59;5089498;28;20058;-39
2021/12/17 11:27:56;;;;;;;7.32;3.95;;;;;;;8.47;57.03;99983.44;5089786;28;20028;-39
2021/12/17 11:30:23;;;;;;;9.75;3.95;;;;;;;8.51;56.63;99974.13;5089006;28;20086;-39
2021/12/17 11:32:49;;;;;;;7.22;4.10;;;;;;;9.11;55.56;99958.88;5089332;28;20028;-38
2021/12/17 11:35:16;;;;;;;6.50;3.60;;;;;;;9.34;54.24;99952.56;5087255;28;20046;-38
2021/12/17 11:37:43;;;;;;;6.53;3.80;;;;;;;9.03;54.89;99952.88;5068455;28;20024;-38
2021/12/17 11:40:31;;;;;;;6.50;3.97;;;;;;;8.87;55.76;99957.41;5056768;28;20035;-38
2021/12/17 11:43:19;;;;;;;6.00;4.00;;;;;;;9.07;54.89;99959.44;5073285;28;20089;-38
2021/12/17 11:46:18;;;;;;;7.50;3.63;;;;;;;8.76;55.65;99956.06;5086424;28;20380;-39
2021/12/17 11:48:52;;;;;;;6.43;3.50;;;;;;;8.68;56.58;99948.22;5067971;28;20044;-39
2021/12/17 11:51:20;;;;;;;7.65;3.80;;;;;;;9.26;55.73;99942.88;5069185;28;20439;-38
2021/12/17 11:53:58;;;;;;;5.65;3.50;;;;;;;9.30;54.97;99936.19;5069470;28;20033;-38
2021/12/17 11:56:36;;;;;;;7.55;3.88;;;;;;;9.23;55.54;99937.94;5082637;28;20511;-38
2021/12/17 11:59:01;;;;;;;5.65;3.65;;;;;;;9.28;55.64;99934.75;5089937;28;20498;-38
2021/12/17 12:02:16;;;;;;;4.40;3.20;;;;;;;8.98;56.97;99934.84;5089127;28;20020;-38
2021/12/17 12:04:43;;;;;;;9.60;4.43;;;;;;;9.18;55.89;99930.56;5046486;28;20496;-38
2021/12/17 12:07:12;;;;;;;7.55;3.40;;;;;;;9.53;54.71;99916.56;5081422;28;20044;-38
2021/12/17 12:10:12;;;;;;;7.00;3.72;;;;;;;9.11;55.93;99911.09;5089447;28;20084;-38
2021/12/17 12:12:38;;;;;;;7.03;3.67;;;;;;;8.89;56.21;99909.44;5089719;28;20039;-39
2021/12/17 12:15:28;;;;;;;9.32;4.32;;;;;;;8.96;56.61;99903.19;5089993;28;20028;-39
2021/12/17 12:18:10;;;;;;;5.00;3.20;;;;;;;9.06;55.80;99899.38;5089529;28;20087;-39
2021/12/17 12:20:45;;;;;;;5.43;3.15;;;;;;;9.17;56.02;99899.69;5089307;28;20016;-39
2021/12/17 12:23:16;;;;;;;8.60;3.47;;;;;;;9.14;55.51;99892.13;5088899;28;20028;-39
2021/12/17 12:25:42;;;;;;;6.07;3.38;;;;;;;9.05;55.64;99903.06;5088774;28;20451;-39
2021/12/17 12:28:07;;;;;;;5.05;3.53;;;;;;;8.99;55.88;99894.84;5088363;28;20032;-39
2021/12/17 12:30:41;;;;;;;8.73;3.65;;;;;;;9.11;55.73;99897.00;5088394;28;20454;-38
2021/12/17 12:33:07;;;;;;;8.32;3.42;;;;;;;8.54;57.19;99896.81;5088335;28;20092;-38
2021/12/17 12:35:33;;;;;;;6.20;3.17;;;;;;;9.11;55.94;99892.50;5088606;28;20084;-38
2021/12/17 12:38:15;;;;;;;5.68;3.05;;;;;;;9.22;55.05;99896.50;5087811;28;20169;-38
2021/12/17 12:40:45;;;;;;;5.47;3.30;;;;;;;9.44;54.89;99883.19;5088742;28;20142;-38
2021/12/17 12:43:26;;;;;;;8.95;3.67;;;;;;;9.27;55.25;99877.31;5088855;28;20024;-37
2021/12/17 12:45:52;;;;;;;7.43;3.67;;;;;;;9.11;55.64;99875.75;5092590;28;20051;-38
2021/12/17 12:48:39;;;;;;;7.45;3.95;;;;;;;9.06;56.24;99878.16;5093109;28;20455;-38
2021/12/17 12:51:18;;;;;;;6.20;3.67;;;;;;;9.71;54.66;99865.56;5093030;28;20344;-38
2021/12/17 12:54:06;;;;;;;5.57;3.65;;;;;;;9.47;55.00;99858.91;5091742;28;20024;-39
2021/12/17 12:56:31;;;;;;;5.93;3.28;;;;;;;8.88;57.22;99858.19;5092875;28;20023;-37
2021/12/17 12:58:57;;;;;;;6.75;3.53;;;;;;;9.14;56.78;99867.44;5091513;28;20031;-38
2021/12/17 13:01:23;;;;;;;4.70;3.58;;;;;;;8.88;58.02;99868.00;5093215;28;20376;-38
2021/12/17 13:03:48;;;;;;;4.85;3.35;;;;;;;8.78;57.86;99878.91;5092946;28;20089;-38
2021/12/17 13:06:16;;;;;;;4.55;3.25;;;;;;;8.79;57.64;99869.94;5092652;28;20461;-38
2021/12/17 13:08:42;;;;;;;4.28;3.40;;;;;;;8.61;58.36;99891.59;5092821;28;20040;-37
2021/12/17 13:11:08;;;;;;;8.88;3.60;;;;;;;8.59;58.51;99883.00;5092214;28;20031;-39
2021/12/17 13:13:56;;;;;;;5.03;3.58;;;;;;;8.61;58.58;99878.34;5092176;28;20464;-39
2021/12/17 13:16:35;;;;;;;5.57;3.75;;;;;;;8.72;58.54;99883.16;5092682;28;20027;-39
2021/12/17 13:21:58;;;;;;;5.20;3.58;;;;;;;8.66;58.41;99883.88;5092470;28;20108;-39
2021/12/17 13:24:26;;;;;;;6.35;3.65;;;;;;;8.65;58.77;99887.56;5092444;28;20028;-39
2021/12/17 13:27:00;;;;;;;4.82;3.75;;;;;;;8.82;58.93;99887.34;5092346;28;20514;-38
2021/12/17 13:29:30;;;;;;;6.00;4.10;;;;;;;8.80;58.90;99893.63;5092186;28;20016;-39
2021/12/17 13:32:07;;;;;;;5.32;3.90;;;;;;;8.76;59.09;99886.25;5092128;28;20020;-39
2021/12/17 13:34:43;;;;;;;6.20;4.28;;;;;;;8.80;59.18;99885.66;5090505;28;20065;-38
2021/12/17 13:37:12;;;;;;;5.97;3.90;;;;;;;8.61;59.07;99887.09;5091985;28;20095;-38
2021/12/17 13:39:45;;;;;;;7.35;3.90;;;;;;;8.59;59.30;99883.00;5091831;28;20028;-40
2021/12/17 13:42:38;;;;;;;6.85;4.05;;;;;;;8.65;59.60;99889.41;5091524;28;20046;-37
2021/12/17 13:45:05;;;;;;;7.18;4.90;;;;;;;8.87;58.68;99887.56;5089946;28;20060;-38
2021/12/17 13:47:31;;;;;;;9.48;4.40;;;;;;;8.84;58.61;99880.00;5092185;28;20024;-39
2021/12/17 13:50:01;;;;;;;6.82;4.47;;;;;;;8.66;58.81;99886.53;5091750;28;20020;-38
2021/12/17 13:52:29;;;;;;;5.60;3.80;;;;;;;8.39;59.30;99890.69;5092011;28;20035;-39
2021/12/17 13:54:55;;;;;;;7.75;3.90;;;;;;;8.45;59.38;99887.31;5091167;28;20043;-39
2021/12/17 13:57:23;;;;;;;9.20;5.00;;;;;;;8.30;59.50;99881.19;5091738;28;20024;-39
2021/12/17 13:59:48;;;;;;;6.38;3.53;;;;;;;8.22;59.99;99871.50;5090479;28;20024;-38
2021/12/17 14:02:16;;;;;;;5.15;3.50;;;;;;;8.09;60.40;99887.22;5091827;28;20032;-39
2021/12/17 14:04:43;;;;;;;3.95;3.20;;;;;;;8.21;59.78;99870.69;5091736;28;20053;-39
2021/12/17 14:07:09;;;;;;;6.18;3.50;;;;;;;8.07;60.32;99868.03;5090899;28;20028;-39
2021/12/17 14:09:35;;;;;;;5.97;3.63;;;;;;;8.17;60.47;99858.00;5092051;28;20047;-38
2021/12/17 14:12:12;;;;;;;4.78;2.95;;;;;;;8.14;59.63;99856.53;5091943;28;20166;-38
2021/12/17 14:14:37;;;;;;;6.07;3.47;;;;;;;8.01;60.08;99851.88;5091615;28;20385;-38
2021/12/17 14:17:04;;;;;;;5.90;2.95;;;;;;;7.93;60.52;99851.16;5091728;28;20093;-39
2021/12/17 14:19:46;;;;;;;4.50;2.83;;;;;;;7.77;60.93;99847.69;5073943;28;20028;-38
2021/12/17 14:22:28;;;;;;;3.80;2.70;;;;;;;7.88;61.17;99858.81;5091840;28;20110;-38
2021/12/17 14:24:57;;;;;;;4.88;2.90;;;;;;;7.78;61.46;99856.44;5071281;28;20047;-37
2021/12/17 14:27:22;;;;;;;4.40;2.40;;;;;;;7.64;62.36;99863.38;5071384;28;20353;-39
2021/12/17 14:30:00;;;;;;;3.97;3.03;;;;;;;7.86;61.73;99866.13;5070470;28;20032;-38
2021/12/17 14:32:26;;;;;;;4.43;3.17;;;;;;;7.87;61.95;99860.66;5071637;28;20054;-38
2021/12/17 14:34:51;;;;;;;3.53;2.50;;;;;;;7.77;62.45;99863.59;5086771;28;20028;-39
2021/12/17 14:37:17;;;;;;;4.40;2.95;;;;;;;7.61;62.80;99874.34;5071154;28;20029;-38
2021/12/17 14:39:46;;;;;;;4.13;2.80;;;;;;;7.61;62.51;99864.56;5070870;28;20372;-38
2021/12/17 14:42:21;;;;;;;4.45;2.75;;;;;;;7.36;63.59;99860.50;5070950;28;20032;-39
2021/12/17 14:44:54;;;;;;;4.15;2.70;;;;;;;7.33;64.35;99861.69;5070715;28;20036;-38